Kellys Korner, Washington
Current Conditions -  °F | °C
As of 8:54 PM on Friday 24 Oct 2014 (Local Time) from KOLM Reporting Station
Moderate Rain Moderate Rain  
Wind Chill: 50°   Ceiling: 3900
Heat Index: 50°   Visibility: 3mi
Dew Point: 49°   Wind: 7mph
Humidity: 96%   Direction: 20°NNE
Pressure: 29.83"   Gusts: NA
Location:  46.9679°N, 122.834°W
Report Text: KOLM 250354Z 02006KT 3SM RA BR FEW007 OVC039 10/09 A2983 RMK AO2 SLP103 P0013 T01000094
Loading
Personal Weather Stations






























Interactive Weather Map New forecast layout! Learn more

10-Day Weather Forecast

Advertisements
Track Severe Weather on mobile